DLH453 KLAX-EDDM
Flight info
| Callsign | DLH453 |
|---|---|
| Flight time | N/A |
| Altitude | 33000 |
| Route | OSHNN1 BEALE Q842 PICHO/N0480F340 Q842 PATIO DCT PIH/N0482F350 DCT KU81O DCT KU03Q DCT KU15S DCT DURUR DCT 55N100W 60N090W 6330N08000W/N0479F370 66N070W/M082F370 DCT CANEL DCT 70N050W 7030N04000W 70N030W 6830N02000W 66N010W DCT GUNPA/N0467F390 DCT MITSI P619 BAVTA P992 ATTUS DCT ELSOB DCT ABGUS DCT SODRO/N0433F310 T703 LULAR/N0426F300 T105 LANDU LANDU2B |
| Aircraft | A388/J-SADE2E3GHIJ3J4J5LM1OP2RWXYZ/LB1D1 |
Departure
| Time | 2026-04-24 01:13 |
|---|---|
| Airport | Los Angeles International Airport (KLAX) |
Arrival
| Time | N/A |
|---|---|
| Airport | Munich Airport (EDDM) |
| Time | Latitude | Longitude | Altitude | Speed | Heading |
|---|---|---|---|---|---|
| 2026-04-24 00:25 | 33.94020 | -118.41078 | 98 ft | 0 kts | 83° |
| 2026-04-24 01:01 | 33.94018 | -118.41103 | 98 ft | 4 kts | 83° |
| 2026-04-24 01:01 | 33.94015 | -118.41130 | 96 ft | 3 kts | 83° |
| 2026-04-24 01:01 | 33.94009 | -118.41159 | 101 ft | 4 kts | 52° |
| 2026-04-24 01:02 | 33.93989 | -118.41176 | 96 ft | 4 kts | 7° |
| 2026-04-24 01:02 | 33.93964 | -118.41176 | 97 ft | 4 kts | 353° |
| 2026-04-24 01:02 | 33.93933 | -118.41171 | 98 ft | 0 kts | 353° |
| 2026-04-24 01:07 | 33.93952 | -118.41174 | 97 ft | 6 kts | 353° |
| 2026-04-24 01:07 | 33.94007 | -118.41182 | 103 ft | 10 kts | 353° |
| 2026-04-24 01:07 | 33.94084 | -118.41194 | 98 ft | 13 kts | 353° |
| 2026-04-24 01:08 | 33.94186 | -118.41209 | 101 ft | 16 kts | 353° |
| 2026-04-24 01:08 | 33.94297 | -118.41225 | 99 ft | 16 kts | 352° |
| 2026-04-24 01:08 | 33.94403 | -118.41242 | 100 ft | 15 kts | 353° |
| 2026-04-24 01:08 | 33.94507 | -118.41257 | 99 ft | 15 kts | 353° |
| 2026-04-24 01:09 | 33.94607 | -118.41271 | 99 ft | 14 kts | 353° |
| 2026-04-24 01:09 | 33.94705 | -118.41286 | 99 ft | 14 kts | 353° |
| 2026-04-24 01:09 | 33.94783 | -118.41264 | 101 ft | 10 kts | 57° |
| 2026-04-24 01:09 | 33.94803 | -118.41175 | 102 ft | 12 kts | 81° |
| 2026-04-24 01:10 | 33.94818 | -118.41048 | 103 ft | 18 kts | 83° |
| 2026-04-24 01:10 | 33.94835 | -118.40878 | 99 ft | 22 kts | 83° |
| 2026-04-24 01:10 | 33.94854 | -118.40689 | 99 ft | 24 kts | 83° |
| 2026-04-24 01:10 | 33.94875 | -118.40487 | 102 ft | 24 kts | 83° |
| 2026-04-24 01:11 | 33.94889 | -118.40347 | 101 ft | 17 kts | 83° |
| 2026-04-24 01:11 | 33.94905 | -118.40199 | 102 ft | 19 kts | 83° |
| 2026-04-24 01:11 | 33.94921 | -118.40031 | 98 ft | 22 kts | 83° |
| 2026-04-24 01:11 | 33.94964 | -118.39918 | 100 ft | 14 kts | 26° |
| 2026-04-24 01:12 | 33.95031 | -118.39933 | 100 ft | 8 kts | 305° |
| 2026-04-24 01:12 | 33.95038 | -118.39989 | 99 ft | 8 kts | 263° |
| 2026-04-24 01:12 | 33.95023 | -118.40130 | 102 ft | 41 kts | 263° |
| 2026-04-24 01:12 | 33.94958 | -118.40769 | 104 ft | 108 kts | 262° |
| 2026-04-24 01:13 | 33.94844 | -118.41869 | 102 ft | 152 kts | 262° |
| 2026-04-24 01:13 | 33.94700 | -118.43160 | 487 ft | 153 kts | 262° |
| 2026-04-24 01:13 | 33.94572 | -118.44422 | 1008 ft | 151 kts | 262° |
| 2026-04-24 01:13 | 33.94446 | -118.45720 | 1377 ft | 160 kts | 265° |
| 2026-04-24 01:14 | 33.94336 | -118.47050 | 1780 ft | 165 kts | 269° |
| 2026-04-24 01:14 | 33.94040 | -118.48464 | 1938 ft | 180 kts | 242° |
| 2026-04-24 01:14 | 33.93093 | -118.49500 | 1987 ft | 200 kts | 205° |
| 2026-04-24 01:14 | 33.91744 | -118.50062 | 2119 ft | 211 kts | 200° |
| 2026-04-24 01:15 | 33.90312 | -118.50618 | 2215 ft | 222 kts | 200° |
| 2026-04-24 01:15 | 33.88756 | -118.51195 | 2375 ft | 245 kts | 193° |
| 2026-04-24 01:15 | 33.86986 | -118.51362 | 2606 ft | 265 kts | 185° |
| 2026-04-24 01:15 | 33.85142 | -118.51424 | 3347 ft | 263 kts | 182° |
| 2026-04-24 01:16 | 33.83304 | -118.51479 | 3965 ft | 268 kts | 181° |
| 2026-04-24 01:16 | 33.81426 | -118.51547 | 4582 ft | 272 kts | 181° |
| 2026-04-24 01:16 | 33.79515 | -118.51628 | 5177 ft | 277 kts | 181° |
| 2026-04-24 01:16 | 33.77581 | -118.51715 | 5813 ft | 280 kts | 181° |
| 2026-04-24 01:17 | 33.75628 | -118.51806 | 6435 ft | 283 kts | 181° |
| 2026-04-24 01:17 | 33.73639 | -118.51899 | 7003 ft | 287 kts | 182° |
| 2026-04-24 01:17 | 33.71641 | -118.51831 | 7667 ft | 289 kts | 168° |
| 2026-04-24 01:17 | 33.69807 | -118.50845 | 8313 ft | 294 kts | 144° |
| 2026-04-24 01:18 | 33.68441 | -118.48985 | 8785 ft | 304 kts | 118° |
| 2026-04-24 01:18 | 33.67673 | -118.46622 | 9426 ft | 306 kts | 107° |
| 2026-04-24 01:18 | 33.67103 | -118.44159 | 10003 ft | 309 kts | 105° |
| 2026-04-24 01:18 | 33.66504 | -118.41625 | 10290 ft | 323 kts | 107° |
| 2026-04-24 01:19 | 33.65809 | -118.38987 | 10449 ft | 340 kts | 109° |
| 2026-04-24 01:19 | 33.65051 | -118.36237 | 10597 ft | 355 kts | 106° |
| 2026-04-24 01:19 | 33.64556 | -118.33325 | 10932 ft | 364 kts | 96° |
| 2026-04-24 01:19 | 33.64444 | -118.30280 | 11388 ft | 368 kts | 88° |
| 2026-04-24 01:20 | 33.64475 | -118.27147 | 11851 ft | 373 kts | 89° |
| 2026-04-24 01:20 | 33.64478 | -118.24061 | 11993 ft | 376 kts | 89° |
| 2026-04-24 01:20 | 33.64522 | -118.20930 | 11988 ft | 375 kts | 82° |
| 2026-04-24 01:20 | 33.65231 | -118.17946 | 11993 ft | 371 kts | 60° |
| 2026-04-24 01:21 | 33.66737 | -118.15486 | 12134 ft | 366 kts | 39° |
| 2026-04-24 01:21 | 33.68756 | -118.13632 | 12603 ft | 364 kts | 30° |
| 2026-04-24 01:21 | 33.70870 | -118.11936 | 13138 ft | 367 kts | 29° |
| 2026-04-24 01:21 | 33.72989 | -118.10207 | 13638 ft | 371 kts | 30° |
| 2026-04-24 01:22 | 33.75105 | -118.08404 | 14045 ft | 374 kts | 31° |
| 2026-04-24 01:22 | 33.77214 | -118.06552 | 14495 ft | 378 kts | 32° |
| 2026-04-24 01:22 | 33.79334 | -118.04659 | 14909 ft | 381 kts | 32° |
| 2026-04-24 01:22 | 33.81466 | -118.02743 | 15360 ft | 384 kts | 32° |
| 2026-04-24 01:23 | 33.83615 | -118.00808 | 15801 ft | 388 kts | 32° |